Time;durP1;ratioP1;P1;durP2;ratioP2;P2;SDS_P1;SDS_P2;PMS_P1;PMS_P2;Temp;Humidity;BMP_temperature;BMP_pressure;BME280_temperature;BME280_humidity;BME280_pressure;Samples;Min_cycle;Max_cycle;Signal;HPM_P1;HPM_P2
2022/08/02 00:02:21;;;;;;;;;;;;;;;16.91;62.01;101875.94;5075518;28;19913;-35
2022/08/02 00:04:46;;;;;;;;;;;;;;;16.89;61.73;101881.66;5075679;28;19912;-36
2022/08/02 00:07:13;;;;;;;;;;;;;;;16.88;62.08;101881.88;5075073;28;19913;-35
2022/08/02 00:09:39;;;;;;;;;;;;;;;16.88;62.09;101876.41;5075152;28;19912;-36
2022/08/02 00:12:04;;;;;;;;;;;;;;;16.86;62.10;101875.84;5075217;28;19912;-36
2022/08/02 00:14:29;;;;;;;;;;;;;;;16.83;62.46;101870.88;5074908;28;20410;-36
2022/08/02 00:16:54;;;;;;;;;;;;;;;16.84;61.94;101886.22;5074891;28;19920;-36
2022/08/02 00:19:20;;;;;;;;;;;;;;;16.87;62.30;101874.78;5075160;28;19924;-36
2022/08/02 00:21:45;;;;;;;;;;;;;;;16.88;62.26;101882.72;5074969;28;19919;-36
2022/08/02 00:24:10;;;;;;;;;;;;;;;16.87;62.60;101875.59;5075591;28;19916;-36
2022/08/02 00:26:35;;;;;;;;;;;;;;;16.82;62.20;101880.16;5074971;28;19983;-36
2022/08/02 00:29:01;;;;;;;;;;;;;;;16.79;62.09;101884.22;5074930;28;20275;-36
2022/08/02 00:31:26;;;;;;;;;;;;;;;16.78;62.53;101878.97;5075094;28;19958;-36
2022/08/02 00:33:51;;;;;;;;;;;;;;;16.75;62.41;101880.31;5074860;28;19919;-36
2022/08/02 00:36:16;;;;;;;;;;;;;;;16.74;62.05;101878.66;5074707;28;20007;-36
2022/08/02 00:38:42;;;;;;;;;;;;;;;16.71;62.09;101881.84;5074948;28;19963;-36
2022/08/02 00:41:12;;;;;;;;;;;;;;;16.68;62.45;101874.97;5074816;28;20285;-36
2022/08/02 00:43:37;;;;;;;;;;;;;;;16.65;62.67;101864.56;5074653;28;19954;-36
2022/08/02 00:46:02;;;;;;;;;;;;;;;16.63;62.26;101868.59;5074337;28;20333;-36
2022/08/02 00:48:27;;;;;;;;;;;;;;;16.63;62.39;101869.41;5074948;28;20348;-36
2022/08/02 00:50:53;;;;;;;;;;;;;;;16.64;62.39;101860.19;5107674;28;19935;-36
2022/08/02 00:53:18;;;;;;;;;;;;;;;16.66;62.62;101852.56;5074435;28;20280;-36
2022/08/02 00:55:43;;;;;;;;;;;;;;;16.65;62.65;101848.16;5074413;28;20356;-36
2022/08/02 00:58:08;;;;;;;;;;;;;;;16.64;62.19;101843.78;5074355;28;19920;-36
2022/08/02 01:00:34;;;;;;;;;;;;;;;16.66;62.10;101852.56;5074256;28;19924;-36
2022/08/02 01:02:59;;;;;;;;;;;;;;;16.58;61.88;101850.22;5073866;28;19913;-36
2022/08/02 01:05:24;;;;;;;;;;;;;;;16.55;62.14;101856.19;5072564;28;20360;-36
2022/08/02 01:07:49;;;;;;;;;;;;;;;16.55;61.72;101852.63;5074027;28;19913;-36
2022/08/02 01:10:15;;;;;;;;;;;;;;;16.55;61.78;101849.91;5074026;28;19927;-36
2022/08/02 01:12:40;;;;;;;;;;;;;;;16.54;61.85;101854.50;5073749;28;20330;-36
2022/08/02 01:15:07;;;;;;;;;;;;;;;16.52;61.94;101851.22;5074262;28;19952;-36
2022/08/02 01:17:42;;;;;;;;;;;;;;;16.52;62.19;101851.22;5073928;28;19919;-36
2022/08/02 01:20:14;;;;;;;;;;;;;;;16.52;62.14;101851.22;5074482;28;19932;-36
2022/08/02 01:22:59;;;;;;;;;;;;;;;16.52;61.96;101850.38;5074086;28;20010;-36
2022/08/02 01:25:38;;;;;;;;;;;;;;;16.53;61.91;101858.31;5074713;28;20008;-36
2022/08/02 01:28:09;;;;;;;;;;;;;;;16.51;62.26;101855.03;5073623;28;19919;-36
2022/08/02 01:30:35;;;;;;;;;;;;;;;16.46;62.02;101846.75;5073259;28;19959;-36
2022/08/02 01:33:01;;;;;;;;;;;;;;;16.41;62.39;101842.03;5073424;28;19912;-36
2022/08/02 01:35:29;;;;;;;;;;;;;;;16.41;62.32;101857.56;5073415;28;19965;-36
2022/08/02 01:38:03;;;;;;;;;;;;;;;16.40;61.90;101858.66;5072284;28;19954;-36
2022/08/02 01:40:30;;;;;;;;;;;;;;;16.36;62.50;101847.38;5073570;28;20053;-36
2022/08/02 01:42:57;;;;;;;;;;;;;;;16.35;62.28;101840.28;5073904;28;20018;-36
2022/08/02 01:45:23;;;;;;;;;;;;;;;16.35;62.24;101836.72;5073748;28;20128;-36
2022/08/02 01:47:49;;;;;;;;;;;;;;;16.34;62.38;101843.22;5073372;28;20346;-35
2022/08/02 01:50:16;;;;;;;;;;;;;;;16.32;62.52;101834.47;5073688;28;20038;-35
2022/08/02 01:52:44;;;;;;;;;;;;;;;16.31;62.52;101832.81;5073075;28;20388;-35
2022/08/02 01:55:17;;;;;;;;;;;;;;;16.29;62.36;101837.69;5071997;28;19912;-35
2022/08/02 01:57:47;;;;;;;;;;;;;;;16.26;62.84;101828.09;5073433;28;19924;-35
2022/08/02 02:00:13;;;;;;;;;;;;;;;16.29;62.45;101829.50;5073437;28;19912;-35
2022/08/02 02:02:41;;;;;;;;;;;;;;;16.29;62.69;101830.31;5073277;28;19912;-35
2022/08/02 02:05:10;;;;;;;;;;;;;;;16.27;62.71;101832.47;5073333;28;20016;-35
2022/08/02 02:07:35;;;;;;;;;;;;;;;16.25;62.84;101825.59;5073242;28;19912;-35
2022/08/02 02:10:02;;;;;;;;;;;;;;;16.20;63.33;101827.19;5073708;28;19969;-35
2022/08/02 02:12:28;;;;;;;;;;;;;;;16.14;63.01;101825.41;5072850;28;19916;-35
2022/08/02 02:14:54;;;;;;;;;;;;;;;16.10;63.19;101818.78;5074004;28;19912;-35
2022/08/02 02:17:21;;;;;;;;;;;;;;;16.10;63.41;101818.78;5073164;28;20260;-35
2022/08/02 02:19:46;;;;;;;;;;;;;;;16.08;63.40;101811.91;5072877;28;19912;-35
2022/08/02 02:22:12;;;;;;;;;;;;;;;16.07;63.53;101810.28;5072832;28;19912;-35
2022/08/02 02:24:37;;;;;;;;;;;;;;;16.06;63.66;101801.25;5073375;28;20007;-35
2022/08/02 02:27:03;;;;;;;;;;;;;;;16.03;64.15;101796.28;5072808;28;19994;-35
2022/08/02 02:29:30;;;;;;;;;;;;;;;15.97;63.89;101791.81;5073811;28;19919;-35
2022/08/02 02:31:58;;;;;;;;;;;;;;;15.89;64.03;101790.28;5072738;28;19916;-35
2022/08/02 02:34:31;;;;;;;;;;;;;;;15.84;64.37;101798.38;5073555;28;20011;-35
2022/08/02 02:37:00;;;;;;;;;;;;;;;15.82;64.17;101794.25;5073492;28;19919;-35
2022/08/02 02:39:27;;;;;;;;;;;;;;;15.80;64.17;101796.38;5073160;28;19912;-35
2022/08/02 02:41:53;;;;;;;;;;;;;;;15.78;64.76;101790.34;5076797;28;19916;-35
2022/08/02 02:44:20;;;;;;;;;;;;;;;15.78;64.70;101793.91;5076913;28;19916;-35
2022/08/02 02:46:46;;;;;;;;;;;;;;;15.78;64.08;101793.06;5076936;28;19916;-35
2022/08/02 02:49:13;;;;;;;;;;;;;;;15.76;64.04;101803.38;5076695;28;19970;-35
2022/08/02 02:51:39;;;;;;;;;;;;;;;15.76;64.21;101796.03;5077237;28;19913;-35
2022/08/02 02:54:05;;;;;;;;;;;;;;;15.76;64.21;101792.47;5076606;28;19920;-35
2022/08/02 02:56:30;;;;;;;;;;;;;;;15.77;64.06;101788.69;5076355;28;19912;-35
2022/08/02 02:58:55;;;;;;;;;;;;;;;15.77;64.23;101799.59;5077200;28;19916;-35
2022/08/02 03:01:28;;;;;;;;;;;;;;;15.77;64.10;101802.34;5076419;28;19920;-35
2022/08/02 03:03:58;;;;;;;;;;;;;;;15.77;64.18;101791.41;5077006;28;19996;-35
2022/08/02 03:06:24;;;;;;;;;;;;;;;15.74;64.46;101781.81;5076734;28;19916;-35
2022/08/02 03:08:49;;;;;;;;;;;;;;;15.72;64.48;101780.41;5076411;28;19912;-35
2022/08/02 03:11:16;;;;;;;;;;;;;;;15.68;64.21;101786.34;5076909;28;19965;-35
2022/08/02 03:13:41;;;;;;;;;;;;;;;15.66;64.97;101788.50;5076372;28;19916;-35
2022/08/02 03:16:07;;;;;;;;;;;;;;;15.64;64.61;101790.63;5076011;28;19919;-35
2022/08/02 03:18:33;;;;;;;;;;;;;;;15.61;65.00;101785.59;5076691;28;19958;-35
2022/08/02 03:20:59;;;;;;;;;;;;;;;15.58;64.72;101790.72;5076360;28;19923;-35
2022/08/02 03:23:24;;;;;;;;;;;;;;;15.57;65.17;101787.19;5076446;28;19920;-35
2022/08/02 03:25:49;;;;;;;;;;;;;;;15.54;65.51;101789.56;5076951;28;20012;-35
2022/08/02 03:28:14;;;;;;;;;;;;;;;15.51;65.40;101796.31;5076331;28;19913;-35
2022/08/02 03:30:40;;;;;;;;;;;;;;;15.49;65.15;101797.63;5076028;28;19948;-35
2022/08/02 03:33:05;;;;;;;;;;;;;;;15.50;65.47;101800.09;5075945;28;19991;-35
2022/08/02 03:35:30;;;;;;;;;;;;;;;15.48;65.44;101791.34;5076424;28;19916;-36
2022/08/02 03:37:56;;;;;;;;;;;;;;;15.47;65.10;101781.53;5075587;28;19919;-36
2022/08/02 03:40:22;;;;;;;;;;;;;;;15.44;65.43;101782.81;5075933;28;19919;-35
2022/08/02 03:42:48;;;;;;;;;;;;;;;15.44;65.31;101773.81;5075465;28;19920;-36
2022/08/02 03:45:13;;;;;;;;;;;;;;;15.44;65.31;101773.81;5076274;28;20256;-36
2022/08/02 03:47:39;;;;;;;;;;;;;;;15.43;65.80;101769.44;5075411;28;19912;-35
2022/08/02 03:50:06;;;;;;;;;;;;;;;15.38;65.96;101766.59;5076215;28;19912;-35
2022/08/02 03:52:32;;;;;;;;;;;;;;;15.36;66.01;101771.47;5074765;28;20007;-35
2022/08/02 03:54:57;;;;;;;;;;;;;;;15.35;65.97;101770.63;5075390;28;20069;-35
2022/08/02 03:57:22;;;;;;;;;;;;;;;15.32;66.07;101760.19;5075088;28;19922;-36
2022/08/02 03:59:48;;;;;;;;;;;;;;;15.30;66.88;101766.97;5075368;28;19916;-36
2022/08/02 04:02:13;;;;;;;;;;;;;;;15.30;66.44;101762.34;5075772;28;19966;-35
2022/08/02 04:04:38;;;;;;;;;;;;;;;15.31;66.41;101758.53;5075054;28;19919;-35
2022/08/02 04:07:04;;;;;;;;;;;;;;;15.32;66.53;101759.38;5075286;28;19912;-36
2022/08/02 04:09:29;;;;;;;;;;;;;;;15.31;67.18;101757.72;5075512;28;20322;-36
2022/08/02 04:11:54;;;;;;;;;;;;;;;15.30;67.02;101756.91;5075156;28;20370;-36
2022/08/02 04:14:20;;;;;;;;;;;;;;;15.31;66.65;101753.09;5075661;28;20316;-36
2022/08/02 04:16:49;;;;;;;;;;;;;;;15.32;66.60;101757.47;5075111;28;19912;-36
2022/08/02 04:19:40;;;;;;;;;;;;;;;15.35;67.91;101757.00;5074629;28;20287;-36
2022/08/02 04:22:08;;;;;;;;;;;;;;;15.36;68.15;101749.66;5076415;28;20415;-35
2022/08/02 04:24:37;;;;;;;;;;;;;;;15.35;67.61;101762.44;5075092;28;19985;-35
2022/08/02 04:27:03;;;;;;;;;;;;;;;15.36;67.36;101757.81;5075164;28;19938;-36
2022/08/02 04:29:29;;;;;;;;;;;;;;;15.37;67.33;101763.06;5074855;28;19935;-36
2022/08/02 04:31:54;;;;;;;;;;;;;;;15.37;67.41;101756.75;5075147;28;19912;-36
2022/08/02 04:34:20;;;;;;;;;;;;;;;15.38;67.54;101763.88;5075405;28;19912;-36
2022/08/02 04:36:45;;;;;;;;;;;;;;;15.40;67.33;101761.72;5075265;28;19913;-36
2022/08/02 04:39:10;;;;;;;;;;;;;;;15.43;67.47;101777.63;5074421;28;20352;-35
2022/08/02 04:41:38;;;;;;;;;;;;;;;15.44;67.02;101771.91;5075077;28;19950;-36
2022/08/02 04:44:04;;;;;;;;;;;;;;;15.48;67.20;101768.72;5074598;28;19912;-36
2022/08/02 04:46:29;;;;;;;;;;;;;;;15.48;67.37;101764.09;5074983;28;19913;-36
2022/08/02 04:48:55;;;;;;;;;;;;;;;15.49;67.22;101764.91;5074734;28;20007;-36
2022/08/02 04:51:20;;;;;;;;;;;;;;;15.51;67.39;101763.59;5075213;28;20120;-36
2022/08/02 04:53:45;;;;;;;;;;;;;;;15.53;67.31;101758.75;5074349;28;19923;-36
2022/08/02 04:56:10;;;;;;;;;;;;;;;15.53;67.80;101750.56;5074429;28;19925;-36
2022/08/02 04:58:35;;;;;;;;;;;;;;;15.51;68.00;101747.25;5074517;28;19923;-36
2022/08/02 05:01:01;;;;;;;;;;;;;;;15.50;68.40;101755.66;5074224;28;19961;-36
2022/08/02 05:03:26;;;;;;;;;;;;;;;15.51;68.41;101758.13;5074710;28;19912;-36
2022/08/02 05:05:51;;;;;;;;;;;;;;;15.54;68.63;101754.13;5074175;28;19952;-36
2022/08/02 05:08:16;;;;;;;;;;;;;;;15.59;68.42;101752.31;5074218;28;20015;-36
2022/08/02 05:10:41;;;;;;;;;;;;;;;15.67;68.29;101751.16;5074897;28;19913;-36
2022/08/02 05:13:07;;;;;;;;;;;;;;;15.73;68.59;101752.06;5074125;28;20271;-36
2022/08/02 05:15:32;;;;;;;;;;;;;;;15.77;67.74;101751.34;5074255;28;19912;-36
2022/08/02 05:17:57;;;;;;;;;;;;;;;15.83;67.86;101744.09;5073684;28;20361;-36
2022/08/02 05:20:22;;;;;;;;;;;;;;;15.89;68.17;101748.56;5074644;28;19916;-36
2022/08/02 05:22:47;;;;;;;;;;;;;;;15.96;68.34;101744.63;5073664;28;19919;-36
2022/08/02 05:25:13;;;;;;;;;;;;;;;16.02;68.98;101748.25;5072685;28;19918;-36
2022/08/02 05:27:38;;;;;;;;;;;;;;;16.09;68.56;101748.91;5073506;28;19924;-36
2022/08/02 05:30:04;;;;;;;;;;;;;;;16.15;68.79;101737.03;5073788;28;19919;-35
2022/08/02 05:32:29;;;;;;;;;;;;;;;16.21;68.80;101741.50;5073373;28;20002;-35
2022/08/02 05:34:55;;;;;;;;;;;;;;;16.27;69.23;101736.97;5073640;28;20007;-35
2022/08/02 05:37:20;;;;;;;;;;;;;;;16.34;69.27;101732.16;5073511;28;19974;-35
2022/08/02 05:39:46;;;;;;;;;;;;;;;16.37;69.71;101730.84;5073287;28;19912;-35
2022/08/02 05:42:11;;;;;;;;;;;;;;;16.43;69.32;101738.03;5072189;28;19973;-35
2022/08/02 05:44:36;;;;;;;;;;;;;;;16.54;68.43;101734.38;5074066;28;19912;-35
2022/08/02 05:47:01;;;;;;;;;;;;;;;16.63;68.20;101726.59;5073246;28;19912;-35
2022/08/02 05:49:27;;;;;;;;;;;;;;;16.73;69.89;101735.78;5073495;28;19912;-36
2022/08/02 05:52:02;;;;;;;;;;;;;;;16.78;68.98;101734.22;5073395;28;19913;-36
2022/08/02 05:54:35;;;;;;;;;;;;;;;16.85;69.65;101743.91;5073581;28;20011;-36
2022/08/02 05:57:03;;;;;;;;;;;;;;;16.89;70.43;101745.06;5072732;28;19916;-36
2022/08/02 05:59:35;;;;;;;;;;;;;;;16.95;70.17;101749.50;5073854;28;20024;-36
2022/08/02 06:02:10;;;;;;;;;;;;;;;17.06;70.00;101746.91;5073910;28;19923;-36
2022/08/02 06:04:58;;;;;;;;;;;;;;;17.21;70.70;101747.13;5073491;28;20003;-36
2022/08/02 06:07:23;;;;;;;;;;;;;;;17.36;71.28;101746.50;5073535;28;19959;-36
2022/08/02 06:09:49;;;;;;;;;;;;;;;17.39;70.65;101749.56;5073098;28;19946;-36
2022/08/02 06:12:15;;;;;;;;;;;;;;;17.40;70.36;101744.91;5073696;28;19958;-36
2022/08/02 06:14:40;;;;;;;;;;;;;;;17.41;72.47;101743.81;5072715;28;20072;-36
2022/08/02 06:17:06;;;;;;;;;;;;;;;17.45;70.91;101747.69;5073345;28;19913;-36
2022/08/02 06:19:32;;;;;;;;;;;;;;;17.44;72.25;101748.78;5073790;28;20404;-36
2022/08/02 06:22:13;;;;;;;;;;;;;;;17.47;72.63;101743.66;5072967;28;19912;-36
2022/08/02 06:24:39;;;;;;;;;;;;;;;17.50;73.88;101753.22;5073201;28;19912;-36
2022/08/02 06:27:05;;;;;;;;;;;;;;;17.56;73.16;101751.38;5073720;28;19923;-36
2022/08/02 06:29:31;;;;;;;;;;;;;;;17.62;73.46;101747.63;5072961;28;20299;-36
2022/08/02 06:31:57;;;;;;;;;;;;;;;17.62;73.24;101740.25;5073719;28;19912;-36
2022/08/02 06:34:22;;;;;;;;;;;;;;;17.73;75.02;101741.22;5073603;28;19912;-36
2022/08/02 06:37:26;;;;;;;;;;;;;;;17.84;73.21;101736.69;5073186;28;20222;-36
2022/08/02 06:39:57;;;;;;;;;;;;;;;17.97;74.38;101736.28;5050479;28;19917;-36
2022/08/02 06:42:27;;;;;;;;;;;;;;;18.06;75.42;101732.00;5050773;28;19919;-36
2022/08/02 06:44:52;;;;;;;;;;;;;;;18.13;74.58;101729.84;5050837;28;19971;-36
2022/08/02 06:47:17;;;;;;;;;;;;;;;18.23;74.87;101732.69;5050618;28;19913;-36
2022/08/02 06:49:43;;;;;;;;;;;;;;;18.32;74.85;101738.50;5050529;28;20404;-36
2022/08/02 06:52:08;;;;;;;;;;;;;;;18.43;74.13;101736.66;5050505;28;19948;-36
2022/08/02 06:54:34;;;;;;;;;;;;;;;18.54;74.33;101727.44;5050249;28;19919;-36
2022/08/02 06:57:00;;;;;;;;;;;;;;;18.66;74.93;101725.34;5050250;28;19924;-36
2022/08/02 06:59:25;;;;;;;;;;;;;;;18.75;75.04;101732.00;5050004;28;19917;-36
2022/08/02 07:01:50;;;;;;;;;;;;;;;18.86;74.35;101721.13;5050451;28;19917;-36
2022/08/02 07:04:15;;;;;;;;;;;;;;;18.96;75.43;101721.16;5050283;28;19912;-36
2022/08/02 07:06:41;;;;;;;;;;;;;;;19.06;74.34;101726.69;5050482;28;19917;-36
2022/08/02 07:09:06;;;;;;;;;;;;;;;19.15;74.81;101730.59;5050170;28;20412;-36
2022/08/02 07:11:31;;;;;;;;;;;;;;;19.22;75.11;101731.16;5070608;28;19946;-36
2022/08/02 07:13:56;;;;;;;;;;;;;;;19.32;74.58;101724.88;5072829;28;19920;-36
2022/08/02 07:16:21;;;;;;;;;;;;;;;19.45;74.72;101726.31;5073061;28;19912;-36
2022/08/02 07:18:47;;;;;;;;;;;;;;;19.57;75.00;101735.16;5072169;28;19956;-36
2022/08/02 07:21:12;;;;;;;;;;;;;;;19.66;74.62;101721.75;5072570;28;20420;-36
2022/08/02 07:23:37;;;;;;;;;;;;;;;19.72;74.75;101716.00;5072473;28;19912;-36
2022/08/02 07:26:02;;;;;;;;;;;;;;;19.79;75.36;101719.31;5072587;28;19918;-36
2022/08/02 07:28:27;;;;;;;;;;;;;;;19.80;75.39;101715.47;5074793;28;19913;-36
2022/08/02 07:30:53;;;;;;;;;;;;;;;19.80;75.43;101712.72;5076533;28;19947;-36
2022/08/02 07:33:18;;;;;;;;;;;;;;;19.80;75.18;101717.38;5075952;28;19912;-36
2022/08/02 07:35:43;;;;;;;;;;;;;;;19.82;75.43;101719.88;5076664;28;19955;-36
2022/08/02 07:38:08;;;;;;;;;;;;;;;19.88;75.92;101711.38;5075528;28;20011;-36
2022/08/02 07:40:34;;;;;;;;;;;;;;;19.94;75.01;101710.28;5076386;28;19958;-36
2022/08/02 07:42:59;;;;;;;;;;;;;;;19.99;76.18;101706.72;5075969;28;19958;-36
2022/08/02 07:45:25;;;;;;;;;;;;;;;20.04;75.23;101703.97;5075713;28;19919;-36
2022/08/02 07:47:50;;;;;;;;;;;;;;;20.14;76.21;101712.22;5075460;28;19912;-36
2022/08/02 07:50:17;;;;;;;;;;;;;;;20.22;75.07;101717.16;5075628;28;20427;-36
2022/08/02 07:52:42;;;;;;;;;;;;;;;20.33;74.81;101718.81;5076224;28;19961;-36
2022/08/02 07:55:08;;;;;;;;;;;;;;;20.45;74.30;101717.72;5075594;28;20053;-36
2022/08/02 07:57:34;;;;;;;;;;;;;;;20.55;73.82;101714.97;5075462;28;19920;-36
2022/08/02 07:59:59;;;;;;;;;;;;;;;20.66;73.29;101716.59;5075875;28;19920;-36
2022/08/02 08:02:24;;;;;;;;;;;;;;;20.78;73.00;101724.53;5075443;28;20421;-36
2022/08/02 08:04:50;;;;;;;;;;;;;;;20.86;72.66;101714.91;5075709;28;19958;-36
2022/08/02 08:07:15;;;;;;;;;;;;;;;20.95;72.31;101707.75;5075330;28;20344;-36
2022/08/02 08:09:40;;;;;;;;;;;;;;;21.05;71.86;101715.97;5075596;28;19973;-36
2022/08/02 08:12:09;;;;;;;;;;;;;;;21.11;71.82;101705.75;5075254;28;19913;-35
2022/08/02 08:14:34;;;;;;;;;;;;;;;21.22;72.18;101710.94;5075651;28;19920;-36
2022/08/02 08:17:00;;;;;;;;;;;;;;;21.31;71.25;101708.44;5074967;28;19913;-36
2022/08/02 08:19:25;;;;;;;;;;;;;;;21.40;71.38;101703.19;5075349;28;20360;-36
2022/08/02 08:21:50;;;;;;;;;;;;;;;21.47;71.24;101698.19;5075017;28;19985;-35
2022/08/02 08:24:16;;;;;;;;;;;;;;;21.50;70.54;101700.38;5075605;28;20053;-35
2022/08/02 08:26:41;;;;;;;;;;;;;;;21.51;70.71;101691.84;5075552;28;20015;-36
2022/08/02 08:29:06;;;;;;;;;;;;;;;21.60;70.30;101695.63;5074930;28;19913;-36
2022/08/02 08:31:32;;;;;;;;;;;;;;;21.73;69.98;101696.13;5075664;28;19957;-36
2022/08/02 08:33:57;;;;;;;;;;;;;;;21.87;69.24;101690.81;5075366;28;19919;-36
2022/08/02 08:36:22;;;;;;;;;;;;;;;22.01;68.77;101702.78;5074805;28;19913;-36
2022/08/02 08:38:49;;;;;;;;;;;;;;;22.09;67.85;101689.22;5074430;28;19969;-36
2022/08/02 08:41:15;;;;;;;;;;;;;;;22.14;65.74;101685.66;5074499;28;19912;-36
2022/08/02 08:43:40;;;;;;;;;;;;;;;22.21;66.72;101691.66;5074767;28;19916;-36
2022/08/02 08:46:07;;;;;;;;;;;;;;;22.32;65.16;101701.47;5075243;28;20372;-36
2022/08/02 08:48:34;;;;;;;;;;;;;;;22.46;65.35;101703.56;5074458;28;19957;-36
2022/08/02 08:51:01;;;;;;;;;;;;;;;22.56;64.90;101704.28;5075225;28;20292;-36
2022/08/02 08:53:28;;;;;;;;;;;;;;;22.69;63.05;101700.00;5074417;28;20253;-36
2022/08/02 08:55:56;;;;;;;;;;;;;;;22.80;62.79;101697.97;5074346;28;19912;-36
2022/08/02 08:58:22;;;;;;;;;;;;;;;22.91;62.36;101701.47;5074422;28;19920;-36
2022/08/02 09:00:47;;;;;;;;;;;;;;;22.99;62.72;101695.31;5074454;28;19932;-36
2022/08/02 09:03:12;;;;;;;;;;;;;;;23.08;61.80;101701.78;5073905;28;19913;-36
2022/08/02 09:05:38;;;;;;;;;;;;;;;23.11;60.36;101701.22;5074022;28;20057;-35
2022/08/02 09:08:04;;;;;;;;;;;;;;;23.11;57.70;101703.97;5074069;28;19958;-35
2022/08/02 09:10:38;;;;;;;;;;;;;;;23.14;57.87;101708.91;5074400;28;19913;-35
2022/08/02 09:13:08;;;;;;;;;;;;;;;23.17;57.64;101702.78;5074078;28;19912;-35
2022/08/02 09:15:33;;;;;;;;;;;;;;;23.17;57.10;101702.78;5073949;28;20348;-35
2022/08/02 09:17:58;;;;;;;;;;;;;;;23.22;56.61;101690.88;5073639;28;19989;-35
2022/08/02 09:20:24;;;;;;;;;;;;;;;23.32;56.21;101702.59;5074194;28;19989;-35
2022/08/02 09:23:05;;;;;;;;;;;;;;;23.49;56.21;101698.53;5073547;28;19916;-35
2022/08/02 09:25:31;;;;;;;;;;;;;;;23.63;54.74;101696.66;5074153;28;19919;-36
2022/08/02 09:27:57;;;;;;;;;;;;;;;23.75;54.45;101699.81;5073512;28;20255;-36
2022/08/02 09:30:24;;;;;;;;;;;;;;;23.87;53.75;101686.38;5074400;28;19931;-36
2022/08/02 09:32:50;;;;;;;;;;;;;;;23.99;53.83;101685.91;5073809;28;19912;-36
2022/08/02 09:35:35;;;;;;;;;;;;;;;24.08;52.95;101686.03;5073838;28;19913;-36
2022/08/02 09:38:13;;;;;;;;;;;;;;;24.20;54.23;101685.56;5074451;28;19912;-36
2022/08/02 09:40:39;;;;;;;;;;;;;;;24.37;54.38;101691.38;5073397;28;19912;-36
2022/08/02 09:43:05;;;;;;;;;;;;;;;24.48;53.58;101686.50;5073571;28;20389;-36
2022/08/02 09:45:33;;;;;;;;;;;;;;;24.58;52.47;101689.06;5073697;28;19916;-35
2022/08/02 09:47:59;;;;;;;;;;;;;;;24.65;49.48;101679.25;5073503;28;19912;-36
2022/08/02 09:50:24;;;;;;;;;;;;;;;24.71;49.91;101690.22;5073180;28;20264;-36
2022/08/02 09:52:49;;;;;;;;;;;;;;;24.80;47.39;101696.69;5073452;28;19916;-36
2022/08/02 09:55:15;;;;;;;;;;;;;;;24.80;47.72;101694.72;5074226;28;19967;-36
2022/08/02 09:57:40;;;;;;;;;;;;;;;24.83;47.83;101696.84;5073384;28;19917;-36
2022/08/02 10:00:08;;;;;;;;;;;;;;;24.93;47.88;101704.97;5074050;28;19913;-36
2022/08/02 10:02:33;;;;;;;;;;;;;;;25.01;47.53;101700.66;5073272;28;19920;-36
2022/08/02 10:04:58;;;;;;;;;;;;;;;25.07;47.21;101690.34;5074163;28;19912;-36
2022/08/02 10:07:24;;;;;;;;;;;;;;;25.11;45.99;101705.19;5073338;28;20326;-37
2022/08/02 10:09:49;;;;;;;;;;;;;;;25.19;44.10;101685.13;5073073;28;19977;-36
2022/08/02 10:12:15;;;;;;;;;;;;;;;25.30;43.92;101696.78;5073058;28;20049;-36
2022/08/02 10:14:40;;;;;;;;;;;;;;;25.41;43.06;101690.69;5073247;28;19916;-36
2022/08/02 10:17:06;;;;;;;;;;;;;;;25.50;43.72;101685.25;5073749;28;19947;-36
2022/08/02 10:19:31;;;;;;;;;;;;;;;25.64;44.82;101686.03;5073690;28;19969;-36
2022/08/02 10:22:00;;;;;;;;;;;;;;;25.82;42.62;101689.81;5073053;28;19916;-37
2022/08/02 10:24:26;;;;;;;;;;;;;;;25.89;42.27;101684.63;5073128;28;19950;-37
2022/08/02 10:26:52;;;;;;;;;;;;;;;25.90;42.29;101679.91;5073871;28;19977;-37
2022/08/02 10:29:19;;;;;;;;;;;;;;;25.90;41.38;101671.59;5072905;28;19912;-37
2022/08/02 10:31:44;;;;;;;;;;;;;;;25.99;41.53;101666.94;5073571;28;19917;-37
2022/08/02 10:34:11;;;;;;;;;;;;;;;26.09;41.46;101676.94;5072766;28;19978;-37
2022/08/02 10:36:38;;;;;;;;;;;;;;;26.12;41.84;101673.56;5074174;28;19912;-36
2022/08/02 10:39:04;;;;;;;;;;;;;;;26.13;42.05;101675.19;5073552;28;19913;-36
2022/08/02 10:41:42;;;;;;;;;;;;;;;26.13;42.45;101670.47;5073612;28;19913;-37
2022/08/02 10:44:07;;;;;;;;;;;;;;;26.19;40.18;101677.50;5072982;28;19912;-37
2022/08/02 10:46:34;;;;;;;;;;;;;;;26.22;40.78;101672.47;5073178;28;19918;-37
2022/08/02 10:49:00;;;;;;;;;;;;;;;26.15;40.92;101667.38;5072748;28;19920;-37
2022/08/02 10:51:45;;;;;;;;;;;;;;;26.20;40.48;101672.78;5072852;28;20002;-37
2022/08/02 10:54:16;;;;;;;;;;;;;;;26.23;41.60;101671.34;5073216;28;19916;-36
2022/08/02 10:56:45;;;;;;;;;;;;;;;26.31;41.92;101668.63;5073605;28;20379;-37
2022/08/02 10:59:24;;;;;;;;;;;;;;;26.48;41.91;101667.91;5073590;28;19920;-36
2022/08/02 11:01:49;;;;;;;;;;;;;;;26.63;41.01;101669.44;5074514;28;19912;-37
2022/08/02 11:04:14;;;;;;;;;;;;;;;26.72;39.35;101666.72;5076501;28;19965;-37
2022/08/02 11:06:58;;;;;;;;;;;;;;;26.76;39.60;101671.31;5076886;28;19912;-37
2022/08/02 11:09:27;;;;;;;;;;;;;;;26.89;39.35;101658.44;5076461;28;19912;-37
2022/08/02 11:12:00;;;;;;;;;;;;;;;27.06;40.81;101668.78;5076410;28;20374;-37
2022/08/02 11:14:25;;;;;;;;;;;;;;;27.22;39.29;101658.88;5076263;28;20268;-37
2022/08/02 11:16:53;;;;;;;;;;;;;;;27.43;37.86;101656.31;5076887;28;19922;-37
2022/08/02 11:19:18;;;;;;;;;;;;;;;27.60;39.53;101661.03;5076312;28;19939;-37
2022/08/02 11:21:58;;;;;;;;;;;;;;;27.69;37.90;101653.53;5076244;28;19912;-37
2022/08/02 11:24:26;;;;;;;;;;;;;;;27.68;36.55;101649.94;5076855;28;19922;-37
2022/08/02 11:26:51;;;;;;;;;;;;;;;27.66;38.21;101660.53;5076903;28;19924;-37
2022/08/02 11:29:17;;;;;;;;;;;;;;;27.67;37.15;101670.53;5076211;28;19913;-37
2022/08/02 11:31:43;;;;;;;;;;;;;;;27.60;34.97;101658.25;5076814;28;19912;-37
2022/08/02 11:34:09;;;;;;;;;;;;;;;27.60;35.52;101661.03;5076827;28;19966;-37
2022/08/02 11:36:48;;;;;;;;;;;;;;;27.56;36.02;101648.94;5076486;28;19912;-37
2022/08/02 11:39:14;;;;;;;;;;;;;;;27.48;36.51;101650.59;5075927;28;19912;-37
2022/08/02 11:41:40;;;;;;;;;;;;;;;27.40;36.36;101656.94;5076598;28;19966;-37
2022/08/02 11:44:05;;;;;;;;;;;;;;;27.34;36.04;101647.97;5076165;28;19913;-36
2022/08/02 11:46:30;;;;;;;;;;;;;;;27.39;36.76;101655.31;5075599;28;20394;-36
2022/08/02 11:48:55;;;;;;;;;;;;;;;27.41;35.44;101659.41;5076485;28;20344;-36
2022/08/02 11:51:21;;;;;;;;;;;;;;;27.32;36.20;101666.91;5076113;28;20065;-37
2022/08/02 11:53:50;;;;;;;;;;;;;;;27.37;36.44;101649.25;5075866;28;19916;-36
2022/08/02 11:56:17;;;;;;;;;;;;;;;27.64;37.60;101642.59;5075657;28;19913;-36
2022/08/02 11:58:59;;;;;;;;;;;;;;;27.88;36.70;101642.09;5075392;28;19916;-36
2022/08/02 12:01:24;;;;;;;;;;;;;;;27.83;35.54;101643.09;5075957;28;20268;-36
2022/08/02 12:03:49;;;;;;;;;;;;;;;27.76;35.41;101642.75;5075137;28;19920;-36
2022/08/02 12:06:16;;;;;;;;;;;;;;;27.74;36.84;101638.69;5075185;28;19913;-36
2022/08/02 12:08:42;;;;;;;;;;;;;;;27.75;35.76;101645.88;5075468;28;19920;-36
2022/08/02 12:11:07;;;;;;;;;;;;;;;27.94;36.99;101654.69;5075479;28;20390;-37
2022/08/02 12:13:44;;;;;;;;;;;;;;;28.10;35.80;101647.44;5074399;28;19958;-37
2022/08/02 12:21:39;;;;;;;;;;;;;;;28.52;35.75;101633.78;5075633;28;19918;-37
2022/08/02 12:24:04;;;;;;;;;;;;;;;28.55;34.14;101637.84;5075503;28;19912;-37
2022/08/02 12:26:29;;;;;;;;;;;;;;;28.57;35.74;101635.56;5075829;28;20263;-36
2022/08/02 12:29:00;;;;;;;;;;;;;;;28.57;34.56;101633.59;5075003;28;19913;-37
2022/08/02 12:31:46;;;;;;;;;;;;;;;28.56;34.98;101633.94;5075409;28;20360;-37
2022/08/02 12:34:19;;;;;;;;;;;;;;;28.59;34.18;101636.03;5075135;28;19912;-37
2022/08/02 12:37:05;;;;;;;;;;;;;;;28.70;34.63;101628.94;5075054;28;19920;-36
2022/08/02 12:39:33;;;;;;;;;;;;;;;28.87;35.40;101633.59;5075359;28;19965;-37
2022/08/02 12:41:58;;;;;;;;;;;;;;;29.07;34.30;101637.59;5074996;28;19955;-37